createdAt,value
2019-04-07T00:00:38.129Z,64.30
2019-04-07T00:06:47.646Z,63.90
2019-04-07T00:09:46.602Z,63.50
2019-04-07T00:16:20.151Z,63.10
2019-04-07T00:19:17.266Z,63.10
2019-04-07T00:22:10.217Z,63.10
2019-04-07T00:25:22.683Z,63.10
2019-04-07T00:28:23.510Z,63.30
2019-04-07T00:31:30.658Z,63.10
2019-04-07T00:43:53.828Z,63.70
2019-04-07T00:46:32.457Z,64.20
2019-04-07T00:49:43.510Z,64.50
2019-04-07T00:52:39.375Z,64.10
2019-04-07T00:55:50.403Z,64.40
2019-04-07T01:05:01.710Z,63.90
2019-04-07T01:08:21.620Z,64.10
2019-04-07T01:14:57.123Z,63.50
2019-04-07T01:22:06.535Z,63.60
2019-04-07T01:24:49.817Z,63.70
2019-04-07T01:27:33.871Z,64.40
2019-04-07T01:30:17.214Z,64.60
2019-04-07T01:33:10.273Z,63.90
2019-04-07T01:35:56.388Z,63.50
2019-04-07T01:41:54.218Z,63.10
2019-04-07T01:44:35.590Z,62.90
2019-04-07T01:54:13.323Z,63.10
2019-04-07T01:59:55.582Z,63.20
2019-04-07T02:02:56.705Z,62.90
2019-04-07T02:05:36.385Z,62.70
2019-04-07T02:08:24.865Z,61.90
2019-04-07T02:11:06.168Z,62.10
2019-04-07T02:14:31.246Z,61.50
2019-04-07T02:20:13.274Z,61.10
2019-04-07T02:22:59.858Z,60.50
2019-04-07T02:25:37.323Z,61.40
2019-04-07T02:28:31.971Z,60.90
2019-04-07T02:31:34.282Z,60.90
2019-04-07T02:34:21.952Z,61.20
2019-04-07T02:37:15.352Z,61.10
2019-04-07T02:40:00.112Z,61.00
2019-04-07T02:43:10.933Z,60.80
2019-04-07T02:46:13.062Z,60.70
2019-04-07T02:48:52.538Z,61.10
2019-04-07T02:51:38.264Z,62.60
2019-04-07T02:57:13.267Z,61.90
2019-04-07T03:00:03.084Z,62.00
2019-04-07T03:02:49.691Z,62.20
2019-04-07T03:05:30.383Z,62.50
2019-04-07T03:08:25.836Z,62.60
2019-04-07T03:11:31.246Z,63.20
2019-04-07T03:14:09.173Z,63.60
2019-04-07T03:20:15.866Z,64.60
2019-04-07T03:23:26.512Z,64.30
2019-04-07T03:26:40.786Z,64.40
2019-04-07T03:29:51.452Z,64.50
2019-04-07T03:40:06.573Z,65.40
2019-04-07T03:46:41.059Z,66.10
2019-04-07T03:49:42.318Z,67.40
2019-04-07T03:52:22.378Z,68.00
2019-04-07T03:55:13.565Z,67.60
2019-04-07T04:01:11.547Z,67.70
2019-04-07T04:03:56.599Z,66.80
2019-04-07T04:06:54.819Z,66.00
2019-04-07T04:16:53.039Z,65.90
2019-04-07T04:22:41.370Z,66.30
2019-04-07T04:25:38.505Z,66.30
2019-04-07T04:48:52.439Z,67.40
2019-04-07T04:51:37.032Z,67.60
2019-04-07T05:04:35.831Z,67.30
2019-04-07T05:13:48.081Z,67.20
2019-04-07T05:37:35.707Z,68.50
2019-04-07T05:40:20.119Z,68.00
2019-04-07T05:42:51.521Z,65.90
2019-04-07T05:45:21.773Z,63.70
2019-04-07T05:47:53.369Z,61.30
2019-04-07T05:50:26.888Z,59.50
2019-04-07T05:52:56.422Z,57.80
2019-04-07T05:55:27.152Z,56.20
2019-04-07T05:57:57.674Z,54.40
2019-04-07T06:00:28.581Z,53.10
2019-04-07T06:03:01.271Z,52.10
2019-04-07T06:05:32.014Z,51.10
2019-04-07T06:08:18.743Z,49.40
2019-04-07T06:10:34.862Z,47.90
2019-04-07T06:13:05.399Z,46.80
2019-04-07T06:15:35.940Z,45.40
2019-04-07T06:18:06.239Z,44.80
2019-04-07T06:20:36.953Z,43.70
2019-04-07T06:23:07.399Z,43.80
2019-04-07T06:25:41.775Z,43.70
2019-04-07T06:28:10.025Z,43.70
2019-04-07T06:30:40.342Z,43.20
2019-04-07T06:33:11.194Z,42.80
2019-04-07T06:35:44.703Z,43.00
2019-04-07T06:38:14.426Z,43.10
2019-04-07T06:40:46.141Z,42.80
2019-04-07T06:43:16.978Z,42.20
2019-04-07T06:45:58.405Z,41.50
2019-04-07T06:48:28.865Z,40.00
2019-04-07T06:51:01.719Z,38.70
2019-04-07T06:53:40.346Z,38.30
2019-04-07T06:56:12.576Z,38.00
2019-04-07T06:58:53.766Z,36.70
2019-04-07T07:01:41.874Z,36.30
2019-04-07T07:04:16.909Z,35.40
2019-04-07T07:07:06.543Z,35.20
2019-04-07T07:09:59.839Z,34.50
2019-04-07T07:12:39.619Z,34.00
2019-04-07T07:15:25.577Z,33.50
2019-04-07T07:18:02.452Z,32.80
2019-04-07T07:20:47.373Z,34.70
2019-04-07T07:23:19.389Z,35.40
2019-04-07T07:25:50.527Z,35.80
2019-04-07T07:28:21.246Z,37.10
2019-04-07T07:30:53.402Z,36.80
2019-04-07T07:33:23.497Z,37.60
2019-04-07T07:35:53.768Z,38.40
2019-04-07T07:38:24.629Z,38.90
2019-04-07T07:40:54.608Z,39.30
2019-04-07T07:43:27.946Z,41.20
2019-04-07T07:45:56.758Z,41.30
2019-04-07T07:48:41.097Z,41.60
2019-04-07T07:51:13.269Z,41.10
2019-04-07T07:53:43.419Z,40.20
2019-04-07T07:56:14.370Z,38.80
2019-04-07T07:58:45.174Z,41.00
2019-04-07T08:01:15.956Z,41.70
2019-04-07T08:03:46.882Z,41.30
2019-04-07T08:06:17.377Z,43.10
2019-04-07T08:08:48.546Z,43.90
2019-04-07T08:11:18.768Z,43.80
2019-04-07T08:13:49.181Z,44.00
2019-04-07T08:16:19.539Z,44.00
2019-04-07T08:18:49.962Z,43.20
2019-04-07T08:21:20.817Z,42.60
2019-04-07T08:23:52.462Z,42.20
2019-04-07T08:26:25.092Z,41.30
2019-04-07T08:28:54.821Z,40.70
2019-04-07T08:31:25.391Z,38.30
2019-04-07T08:33:55.934Z,38.60
2019-04-07T08:36:27.605Z,37.90
2019-04-07T08:38:58.485Z,37.40
2019-04-07T08:41:28.891Z,38.00
2019-04-07T08:43:59.860Z,36.70
2019-04-07T08:46:35.219Z,36.60
2019-04-07T08:49:03.818Z,36.40
2019-04-07T08:51:34.165Z,35.30
2019-04-07T08:54:05.072Z,36.50
2019-04-07T08:56:36.645Z,37.20
2019-04-07T08:59:10.030Z,36.60
2019-04-07T09:01:39.193Z,36.70
2019-04-07T09:04:09.806Z,36.90
2019-04-07T09:06:40.858Z,37.10
2019-04-07T09:09:11.201Z,37.00
2019-04-07T09:11:42.449Z,36.50
2019-04-07T09:14:15.121Z,37.50
2019-04-07T09:17:02.306Z,37.00
2019-04-07T09:19:37.250Z,36.80
2019-04-07T09:22:26.260Z,36.70
2019-04-07T09:24:58.830Z,36.60
2019-04-07T09:27:48.616Z,35.70
2019-04-07T09:30:21.332Z,35.30
2019-04-07T09:33:08.207Z,36.50
2019-04-07T09:35:59.065Z,36.20
2019-04-07T09:38:36.651Z,36.10
2019-04-07T09:41:16.672Z,36.00
2019-04-07T09:44:02.806Z,35.60
2019-04-07T09:46:35.439Z,36.30
2019-04-07T09:49:24.775Z,36.60
2019-04-07T09:51:58.621Z,36.00
2019-04-07T09:54:33.149Z,36.20
2019-04-07T09:57:11.167Z,35.90
2019-04-07T09:59:43.118Z,36.10
2019-04-07T10:02:15.632Z,34.00
2019-04-07T10:05:04.535Z,35.10
2019-04-07T10:07:53.204Z,34.90
2019-04-07T10:10:41.981Z,35.30
2019-04-07T10:13:20.041Z,35.80
2019-04-07T10:16:07.966Z,36.60
2019-04-07T10:18:55.261Z,36.30
2019-04-07T10:21:43.970Z,35.10
2019-04-07T10:24:16.923Z,35.30
2019-04-07T10:26:51.966Z,34.80
2019-04-07T10:29:27.591Z,36.00
2019-04-07T10:32:16.404Z,35.80
2019-04-07T10:34:51.421Z,34.10
2019-04-07T10:37:23.404Z,33.90
2019-04-07T10:39:59.257Z,32.60
2019-04-07T10:42:31.490Z,33.00
2019-04-07T10:45:18.857Z,33.20
2019-04-07T10:47:51.152Z,34.00
2019-04-07T10:50:35.705Z,34.70
2019-04-07T10:55:50.967Z,34.00
2019-04-07T10:58:23.112Z,34.30
2019-04-07T11:00:58.684Z,34.40
2019-04-07T11:03:45.839Z,33.40
2019-04-07T11:06:20.346Z,33.50
2019-04-07T11:09:08.824Z,33.60
2019-04-07T11:11:51.155Z,32.40
2019-04-07T11:14:41.655Z,32.80
2019-04-07T11:17:25.809Z,32.70
2019-04-07T11:20:09.568Z,33.00
2019-04-07T11:22:41.438Z,32.80
2019-04-07T11:25:16.440Z,32.70
2019-04-07T11:27:51.210Z,32.60
2019-04-07T11:30:39.852Z,32.00
2019-04-07T11:33:12.059Z,31.40
2019-04-07T11:36:00.698Z,29.70
2019-04-07T11:38:36.197Z,29.10
2019-04-07T11:41:09.055Z,30.00
2019-04-07T11:43:40.940Z,30.00
2019-04-07T11:46:16.438Z,30.10
2019-04-07T11:48:59.034Z,29.50
2019-04-07T11:51:42.763Z,29.70
2019-04-07T11:54:15.316Z,30.00
2019-04-07T11:56:56.557Z,29.40
2019-04-07T11:59:45.901Z,29.10
2019-04-07T12:02:21.695Z,29.50
2019-04-07T12:05:10.644Z,30.00
2019-04-07T12:07:44.543Z,30.30
2019-04-07T12:10:22.479Z,30.50
2019-04-07T12:12:54.896Z,30.10
2019-04-07T12:15:30.205Z,29.40
2019-04-07T12:18:11.728Z,29.70
2019-04-07T12:20:46.198Z,30.10
2019-04-07T12:23:23.351Z,29.50
2019-04-07T12:26:05.170Z,29.50
2019-04-07T12:28:43.100Z,30.20
2019-04-07T12:31:31.356Z,30.00
2019-04-07T12:34:15.558Z,30.80
2019-04-07T12:36:47.644Z,30.00
2019-04-07T12:39:36.187Z,29.40
2019-04-07T12:42:26.700Z,29.80
2019-04-07T12:45:01.785Z,30.00
2019-04-07T12:47:34.365Z,30.30
2019-04-07T12:50:21.005Z,29.50
2019-04-07T12:53:10.168Z,31.60
2019-04-07T12:55:42.135Z,30.60
2019-04-07T12:58:14.858Z,30.10
2019-04-07T13:01:09.588Z,30.00
2019-04-07T13:03:45.082Z,29.90
2019-04-07T13:06:33.328Z,29.40
2019-04-07T13:09:29.676Z,29.00
2019-04-07T13:12:20.433Z,30.00
2019-04-07T13:15:05.491Z,29.40
2019-04-07T13:17:47.323Z,29.70
2019-04-07T13:20:25.484Z,29.80
2019-04-07T13:22:58.748Z,30.00
2019-04-07T13:25:39.691Z,30.20
2019-04-07T13:28:11.676Z,31.40
2019-04-07T13:30:50.092Z,31.30
2019-04-07T13:33:29.439Z,30.20
2019-04-07T13:36:08.257Z,32.00
2019-04-07T13:39:08.436Z,31.60
2019-04-07T13:41:46.125Z,31.40
2019-04-07T13:44:20.282Z,31.40
2019-04-07T13:47:09.468Z,31.20
2019-04-07T13:49:51.400Z,31.10
2019-04-07T13:52:23.556Z,32.40
2019-04-07T13:55:11.988Z,31.50
2019-04-07T13:57:47.200Z,31.40
2019-04-07T14:00:35.774Z,31.30
2019-04-07T14:03:07.881Z,32.00
2019-04-07T14:05:46.429Z,31.60
2019-04-07T14:08:18.386Z,31.10
2019-04-07T14:11:10.112Z,32.70
2019-04-07T14:13:42.428Z,31.80
2019-04-07T14:16:31.240Z,30.70
2019-04-07T14:19:09.363Z,30.80
2019-04-07T14:21:41.491Z,32.20
2019-04-07T14:26:59.293Z,32.20
2019-04-07T14:29:31.672Z,32.90
2019-04-07T14:32:06.770Z,33.90
2019-04-07T14:34:41.728Z,32.80
2019-04-07T14:37:30.722Z,33.50
2019-04-07T14:40:15.125Z,32.70
2019-04-07T14:42:50.645Z,33.20
2019-04-07T14:45:23.211Z,32.60
2019-04-07T14:48:02.090Z,33.70
2019-04-07T14:50:34.242Z,33.50
2019-04-07T14:53:12.094Z,32.70
2019-04-07T14:55:50.978Z,32.80
2019-04-07T14:58:30.190Z,33.10
2019-04-07T15:01:05.540Z,33.30
2019-04-07T15:03:35.182Z,33.00
2019-04-07T15:06:06.501Z,32.50
2019-04-07T15:08:37.963Z,32.70
2019-04-07T15:11:21.997Z,33.20
2019-04-07T15:13:56.968Z,33.20
2019-04-07T15:16:25.247Z,34.00
2019-04-07T15:18:56.505Z,33.30
2019-04-07T15:21:27.444Z,35.10
2019-04-07T15:24:01.872Z,34.10
2019-04-07T15:26:46.947Z,34.50
2019-04-07T15:29:15.790Z,34.90
2019-04-07T15:31:49.067Z,34.30
2019-04-07T15:34:18.711Z,33.90
2019-04-07T15:36:50.043Z,33.30
2019-04-07T15:39:47.913Z,32.90
2019-04-07T15:42:34.142Z,31.90
2019-04-07T15:44:50.861Z,32.30
2019-04-07T15:47:21.964Z,32.90
2019-04-07T15:49:52.842Z,33.40
2019-04-07T15:52:23.163Z,32.10
2019-04-07T15:54:54.963Z,32.50
2019-04-07T15:57:25.800Z,33.00
2019-04-07T16:00:00.105Z,33.10
2019-04-07T16:02:28.995Z,33.70
2019-04-07T16:05:02.326Z,34.90
2019-04-07T16:07:31.682Z,33.80
2019-04-07T16:10:02.085Z,34.90
2019-04-07T16:12:42.842Z,33.60
2019-04-07T16:15:05.981Z,33.20
2019-04-07T16:17:37.192Z,33.50
2019-04-07T16:20:20.708Z,33.00
2019-04-07T16:22:45.838Z,34.50
2019-04-07T16:25:15.465Z,35.10
2019-04-07T16:27:45.819Z,35.20
2019-04-07T16:30:18.966Z,36.10
2019-04-07T16:32:48.190Z,36.50
2019-04-07T16:35:20.352Z,36.10
2019-04-07T16:37:50.749Z,36.30
2019-04-07T16:40:21.736Z,35.90
2019-04-07T16:43:04.389Z,36.60
2019-04-07T16:45:25.451Z,36.80
2019-04-07T16:47:56.516Z,37.10
2019-04-07T16:50:27.378Z,37.30
2019-04-07T16:52:58.376Z,37.00
2019-04-07T16:55:37.426Z,36.80
2019-04-07T16:58:08.424Z,36.50
2019-04-07T17:00:38.448Z,36.10
2019-04-07T17:03:08.560Z,36.30
2019-04-07T17:05:39.683Z,36.20
2019-04-07T17:08:11.335Z,35.60
2019-04-07T17:10:43.140Z,35.90
2019-04-07T17:13:20.110Z,35.50
2019-04-07T17:15:46.635Z,36.20
2019-04-07T17:18:35.590Z,36.40
2019-04-07T17:44:35.144Z,41.70
2019-04-07T17:47:21.796Z,42.10
2019-04-07T17:50:02.344Z,41.30
2019-04-07T17:53:00.478Z,40.40
2019-04-07T18:03:26.162Z,40.30
2019-04-07T18:06:19.458Z,40.40
2019-04-07T18:12:29.477Z,40.50
2019-04-07T18:15:10.665Z,40.10
2019-04-07T18:17:56.039Z,40.60
2019-04-07T18:20:47.451Z,40.10
2019-04-07T18:23:32.627Z,39.90
2019-04-07T18:29:27.823Z,40.20
2019-04-07T18:32:03.766Z,40.30
2019-04-07T18:34:40.179Z,40.40
2019-04-07T18:37:25.210Z,40.50
2019-04-07T18:40:06.731Z,40.00
2019-04-07T18:42:48.946Z,40.30
2019-04-07T18:45:47.107Z,40.60
2019-04-07T18:48:24.687Z,40.40
2019-04-07T18:51:14.844Z,40.60
2019-04-07T18:54:04.094Z,40.80
2019-04-07T18:56:44.009Z,40.40
2019-04-07T18:59:39.200Z,40.70
2019-04-07T19:02:27.721Z,40.60
2019-04-07T19:05:04.964Z,40.50
2019-04-07T19:07:45.873Z,41.10
2019-04-07T19:10:32.346Z,40.60
2019-04-07T19:13:27.276Z,40.70
2019-04-07T19:16:02.070Z,40.50
2019-04-07T19:18:47.371Z,40.60
2019-04-07T19:21:32.291Z,41.10
2019-04-07T19:24:13.978Z,40.80
2019-04-07T19:26:54.564Z,40.70
2019-04-07T19:29:39.018Z,40.80
2019-04-07T19:32:14.994Z,41.00
2019-04-07T19:35:23.505Z,40.80
2019-04-07T19:38:11.039Z,40.70
2019-04-07T19:44:32.726Z,40.80
2019-04-07T19:47:34.331Z,41.00
2019-04-07T19:50:31.484Z,40.90
2019-04-07T19:53:14.752Z,41.20
2019-04-07T19:56:25.843Z,41.60
2019-04-07T19:59:21.708Z,41.60
2019-04-07T20:02:40.589Z,41.70
2019-04-07T20:05:52.695Z,41.90
2019-04-07T20:08:56.228Z,41.80
2019-04-07T20:12:25.114Z,41.90
2019-04-07T20:15:25.858Z,41.30
2019-04-07T20:20:57.263Z,42.70
2019-04-07T20:24:02.730Z,42.70
2019-04-07T20:29:51.889Z,43.60
2019-04-07T20:33:07.637Z,43.60
2019-04-07T20:36:23.634Z,43.80
2019-04-07T20:39:33.899Z,44.30
2019-04-07T20:45:55.871Z,45.00
2019-04-07T20:48:58.095Z,45.90
2019-04-07T20:52:22.307Z,46.60
2019-04-07T20:55:48.201Z,47.00
2019-04-07T21:02:37.738Z,47.70
2019-04-07T21:05:46.812Z,47.80
2019-04-07T21:08:54.928Z,48.10
2019-04-07T21:15:10.046Z,48.80
2019-04-07T21:18:17.940Z,48.30
2019-04-07T21:21:12.279Z,48.50
2019-04-07T21:27:49.029Z,48.40
2019-04-07T21:30:55.705Z,48.50
2019-04-07T21:33:59.190Z,48.80
2019-04-07T21:40:27.450Z,49.30
2019-04-07T21:43:33.963Z,49.60
2019-04-07T21:46:59.961Z,49.70
2019-04-07T21:53:44.283Z,49.90
2019-04-07T21:56:19.962Z,49.70
2019-04-07T22:03:03.931Z,49.90
2019-04-07T22:08:50.453Z,50.30
2019-04-07T22:17:25.864Z,50.90
2019-04-07T22:20:54.514Z,50.70
2019-04-07T22:23:54.285Z,50.60
2019-04-07T22:30:05.430Z,50.70
2019-04-07T22:33:24.280Z,51.40
2019-04-07T22:36:13.903Z,51.30
2019-04-07T22:39:07.880Z,50.90
2019-04-07T22:44:55.989Z,51.80
2019-04-07T23:00:27.617Z,52.30
2019-04-07T23:03:39.101Z,52.60
2019-04-07T23:06:21.859Z,52.70
2019-04-07T23:09:10.520Z,52.70
2019-04-07T23:12:06.116Z,52.80
2019-04-07T23:14:44.242Z,52.50
2019-04-07T23:17:59.766Z,52.40
2019-04-07T23:23:57.693Z,52.60
2019-04-07T23:30:20.108Z,52.80
2019-04-07T23:33:08.325Z,52.30
2019-04-07T23:36:06.520Z,52.60
2019-04-07T23:38:51.707Z,52.80
2019-04-07T23:45:03.242Z,52.80
2019-04-07T23:50:52.691Z,52.00
2019-04-07T23:57:28.106Z,53.00
